Latest Weather Observations for Hogan Island

IDV60801

Issued at 6:02 am EST Saturday 25 June 2016 (issued every 30 minutes, with the page automatically refreshed every 10 minutes)

About weather observations | Map of weather stations | Latest weather observations for VIC | Other Formats
Station Details ID: 200838 Name: HOGAN ISLAND Lat: -39.22 Lon: 146.98 Height: 116.0 m
Data from the previous 72 hours. | See also: Recent months at Hogan Island
Date/Time
EST
Temp
°C
App
Temp
°C
Dew
Point
°C
Rel
Hum
%
Delta-T
°C
Wind Press
QNH
hPa
Press
MSL
hPa
Rain since
9am
mm
Dir  Spd
km/h
Gust
km/h
Spd
kts
Gust
kts
25/06:00am 8.6 -2.5 2.2 64 2.7 SW 50 61 27 33 1016.7 1016.8 10.6
25/05:30am 8.5 -3.3 2.5 66 2.5 SW 54 63 29 34 1016.2 - 10.6
25/05:11am 8.6 -2.1 2.6 66 2.5 SW 48 69 26 37 1015.9 - 10.6
25/05:00am 8.8 -2.6 3.0 67 2.5 SW 52 63 28 34 1015.8 - 10.6
25/04:30am 8.8 -2.1 3.6 70 2.3 WSW 50 61 27 33 1015.6 - 10.6
25/04:00am 8.0 -4.1 3.3 72 2.0 SW 56 74 30 40 1015.2 - 10.6
25/03:55am 7.4 -4.8 2.7 72 2.0 SW 56 74 30 40 1015.2 - 10.6
25/03:30am 8.5 -3.9 2.5 66 2.5 SW 57 67 31 36 1014.9 - 10.6
25/03:00am 8.7 -4.4 2.7 66 2.6 SW 61 72 33 39 1014.6 1014.7 10.6
25/02:30am 8.4 -3.8 3.7 72 2.0 SW 57 69 31 37 1014.3 - 10.4
25/02:00am 8.1 -4.6 3.0 70 2.2 SW 59 70 32 38 1013.9 - 10.4
25/01:38am 8.2 -4.9 2.9 69 2.3 SW 61 80 33 43 1013.5 - 10.4
25/01:30am 8.7 -3.7 2.7 66 2.6 WSW 57 70 31 38 1013.3 - 10.4
25/01:00am 8.4 -4.1 2.2 65 2.6 SW 57 70 31 38 1013.1 - 10.4
25/12:30am 8.5 -4.3 2.7 67 2.5 WSW 59 72 32 39 1012.8 - 10.4
25/12:00am 8.3 -4.8 2.8 68 2.3 SW 61 72 33 39 1012.2 1012.3 10.4
 
Date/Time
EST
Temp
°C
App
Temp
°C
Dew
Point
°C
Rel
Hum
%
Delta-T
°C
Wind Press
QNH
hPa
Press
MSL
hPa
Rain since
9am
mm
Dir  Spd
km/h
Gust
km/h
Spd
kts
Gust
kts
24/11:30pm 8.3 -5.5 3.2 70 2.2 SW 65 74 35 40 1011.7 - 10.4
24/11:00pm 8.6 -4.4 3.6 71 2.2 WSW 61 76 33 41 1011.4 - 10.4
24/10:30pm 8.0 -5.5 3.1 71 2.1 WSW 63 74 34 40 1011.1 - 10.4
24/10:00pm 8.3 -3.7 3.8 73 2.0 WSW 56 70 30 38 1010.5 - 10.4
24/09:57pm 8.3 -3.9 3.6 72 2.0 WSW 57 76 31 41 1010.4 - 10.4
24/09:30pm 8.1 -5.0 3.0 70 2.2 WSW 61 74 33 40 1010.1 - 10.4
24/09:00pm 8.1 -5.4 2.8 69 2.3 WSW 63 76 34 41 1009.5 1009.6 10.4
24/08:30pm 8.1 -4.9 3.4 72 2.0 WSW 61 72 33 39 1009.1 - 10.4
24/08:00pm 8.1 -4.5 3.8 74 1.9 WSW 59 69 32 37 1008.6 - 10.4
24/07:30pm 7.6 -4.6 3.5 75 1.8 WSW 57 70 31 38 1008.0 - 10.4
24/07:19pm 7.0 -2.2 3.6 79 1.5 WSW 41 65 22 35 1007.8 - 10.4
24/07:00pm 5.4 -2.3 2.2 80 1.3 SW 32 39 17 21 1008.0 - 10.4
24/06:41pm 5.1 -5.3 1.9 80 1.3 SW 46 91 25 49 1007.6 - 10.4
24/06:30pm 6.4 -8.2 3.2 80 1.3 WSW 69 95 37 51 1006.6 - 10.2
24/06:24pm 6.1 -8.1 2.9 80 1.3 WSW 67 95 36 51 1006.7 - 10.2
24/06:15pm 7.9 -3.8 3.6 74 1.9 WSW 54 74 29 40 1006.4 - 10.0
24/06:00pm 7.4 -5.3 2.9 73 1.9 WSW 59 65 32 35 1006.0 1006.1 10.0
24/05:30pm 6.7 -5.6 3.1 78 1.5 WSW 57 76 31 41 1005.7 - 10.0
24/05:11pm 8.4 -5.5 2.8 68 2.4 WSW 65 93 35 50 1004.5 - 10.0
24/05:00pm 8.3 -4.0 3.0 69 2.3 WSW 57 70 31 38 1004.8 - 10.0
24/04:33pm 8.2 -2.6 4.2 76 1.8 WSW 50 69 27 37 1004.2 - 10.0
24/04:30pm 8.0 -2.4 4.0 76 1.7 WSW 48 59 26 32 1004.2 - 10.0
24/04:00pm 7.8 -3.4 4.0 77 1.7 WSW 52 61 28 33 1003.4 - 10.0
24/03:30pm 7.3 -2.2 4.8 84 1.1 WSW 44 52 24 28 1003.2 - 10.0
24/03:00pm 6.9 -3.4 4.7 86 1.0 SW 48 59 26 32 1002.8 1002.8 10.0
24/02:30pm 6.6 -5.3 5.1 90 0.7 SW 57 67 31 36 1002.1 - 10.0
24/02:00pm 6.0 -6.0 4.5 90 0.6 SW 57 67 31 36 1001.7 - 10.0
24/01:30pm 6.3 -5.7 4.9 91 0.6 WSW 57 74 31 40 1001.1 - 9.8
24/01:04pm 5.7 -4.3 4.2 90 0.6 WSW 46 65 25 35 1001.4 - 9.4
24/01:00pm 5.2 -6.1 3.7 90 0.6 SW 52 65 28 35 1001.5 - 9.0
24/12:51pm 5.8 -3.2 4.3 90 0.6 SW 41 59 22 32 1001.1 - 8.6
24/12:30pm 5.2 -3.6 3.4 88 0.8 SW 39 56 21 30 1000.8 - 7.6
24/12:27pm 5.2 -4.1 3.2 87 0.8 SW 41 56 22 30 1000.7 - 7.6
24/12:16pm 4.8 -7.1 2.0 82 1.1 W 54 80 29 43 1000.5 - 6.4
24/12:03pm 7.2 -3.1 4.7 84 1.1 WNW 48 67 26 36 1000.4 - 5.8
24/12:00pm 7.2 -3.5 4.7 84 1.1 WNW 50 67 27 36 1000.3 1000.4 5.8
24/11:54am 7.8 -1.9 5.6 86 1.0 WNW 46 65 25 35 1000.1 - 5.8
24/11:30am 6.9 -3.3 5.2 89 0.8 WNW 48 57 26 31 1000.4 - 5.8
24/11:00am 6.9 -0.5 5.2 89 0.8 W 33 46 18 25 1000.6 - 5.8
24/10:30am 6.5 0.5 5.1 91 0.6 WSW 26 33 14 18 1000.6 - 5.8
24/10:00am 5.9 -2.0 4.5 91 0.6 WSW 35 52 19 28 1000.0 - 5.6
24/09:55am 5.8 -2.1 4.4 91 0.6 WSW 35 52 19 28 1000.0 - 5.6
24/09:30am 5.7 -6.4 4.3 91 0.6 W 57 69 31 37 999.2 - 3.4
24/09:29am 5.8 -6.1 4.4 91 0.6 W 56 67 30 36 999.2 - 3.0
24/09:03am 6.6 -5.1 5.1 90 0.7 WNW 56 74 30 40 998.8 - 0.6
24/09:00am 6.3 -4.7 4.8 90 0.7 WNW 52 69 28 37 999.1 999.2 8.8
24/08:47am 6.0 -5.9 4.3 89 0.7 WNW 56 65 30 35 998.8 - 7.8
24/08:38am 6.6 -0.6 4.9 89 0.7 NW 32 50 17 27 999.0 - 7.0
24/08:30am 7.1 1.5 5.4 89 0.8 WNW 24 33 13 18 999.0 - 7.0
24/08:00am 6.6 2.3 5.1 90 0.7 WNW 17 24 9 13 998.6 - 7.0
24/07:30am 6.1 1.7 4.6 90 0.7 W 17 24 9 13 998.4 - 7.0
24/07:00am 6.2 -0.3 4.7 90 0.7 W 28 35 15 19 998.5 - 6.4
24/06:30am 6.1 1.1 4.6 90 0.7 WSW 20 28 11 15 998.2 - 5.8
24/06:00am 5.9 -0.3 4.2 89 0.7 WSW 26 33 14 18 997.7 997.8 5.4
24/05:52am 5.7 -2.6 4.0 89 0.7 WSW 37 56 20 30 997.7 - 5.4
24/05:30am 6.6 -2.0 4.9 89 0.7 WSW 39 48 21 26 997.5 - 4.8
24/05:05am 6.4 -2.6 4.6 88 0.8 W 41 59 22 32 997.4 - 4.6
24/05:00am 6.5 -3.1 4.5 87 0.9 W 44 59 24 32 997.4 - 4.4
24/04:39am 7.0 -4.4 4.8 86 1.0 W 54 72 29 39 997.3 - 3.8
24/04:30am 7.0 -6.6 4.5 84 1.1 W 65 82 35 44 997.0 - 3.8
24/04:15am 8.4 -6.2 5.9 84 1.1 WNW 72 80 39 43 996.1 - 3.8
24/04:10am 8.8 -1.5 6.4 85 1.1 WNW 50 69 27 37 996.5 - 3.8
24/04:00am 8.3 -1.4 5.9 85 1.1 WNW 46 57 25 31 996.6 - 3.8
24/03:30am 8.3 0.0 5.9 85 1.1 WNW 39 50 21 27 996.8 - 3.8
24/03:00am 8.3 0.3 5.9 85 1.1 WNW 37 48 20 26 996.9 997.0 3.6
24/02:30am 8.4 0.6 6.7 89 0.8 WNW 37 46 20 25 996.8 - 3.6
24/02:00am 7.9 0.7 6.0 88 0.9 WNW 33 43 18 23 996.8 - 3.6
24/01:30am 7.9 0.9 5.9 87 0.9 NW 32 44 17 24 996.7 - 3.4
24/01:00am 7.9 1.5 5.4 84 1.1 W 28 35 15 19 997.0 - 3.4
24/12:30am 7.7 1.8 5.7 87 0.9 W 26 32 14 17 996.9 - 3.4
24/12:00am 7.3 0.6 5.6 89 0.8 W 30 52 16 28 996.7 996.8 3.4
 
Date/Time
EST
Temp
°C
App
Temp
°C
Dew
Point
°C
Rel
Hum
%
Delta-T
°C
Wind Press
QNH
hPa
Press
MSL
hPa
Rain since
9am
mm
Dir  Spd
km/h
Gust
km/h
Spd
kts
Gust
kts
23/11:56pm 7.4 0.2 5.7 89 0.8 W 33 57 18 31 996.8 - 3.4
23/11:48pm 7.0 -4.9 5.3 89 0.8 W 57 76 31 41 996.9 - 3.4
23/11:30pm 7.2 -5.5 5.3 88 0.8 W 61 69 33 37 996.6 - 2.8
23/11:12pm 7.7 -5.3 5.5 86 1.0 W 63 76 34 41 996.5 - 2.2
23/11:06pm 7.8 -1.0 5.6 86 1.0 WNW 41 59 22 32 996.8 - 2.0
23/11:00pm 7.4 -1.1 5.0 85 1.1 WNW 39 54 21 29 996.9 - 1.6
23/10:59pm 7.3 -1.3 4.9 85 1.1 WNW 39 54 21 29 996.8 - 1.6
23/10:47pm 7.2 -4.8 4.0 80 1.4 WSW 56 74 30 40 996.8 - 0.8
23/10:40pm 8.1 -5.6 3.9 75 1.8 WSW 65 72 35 39 996.3 - 0.0
23/10:37pm 10.0 0.7 6.0 76 1.9 WNW 44 65 24 35 996.4 - 0.0
23/10:30pm 9.8 0.5 5.8 76 1.8 WNW 44 54 24 29 996.3 - 0.0
23/10:00pm 9.6 0.3 6.0 78 1.7 WNW 44 52 24 28 996.1 - 0.0
23/09:30pm 9.7 1.0 6.2 79 1.6 WNW 41 54 22 29 996.2 - 0.0
23/09:00pm 9.6 0.7 6.7 82 1.4 W 43 48 23 26 996.4 996.5 0.0
23/08:30pm 9.5 0.4 6.6 82 1.4 W 44 54 24 29 996.4 - 0.0
23/08:00pm 9.7 -1.1 7.5 86 1.1 W 54 63 29 34 995.9 - 0.0
23/07:30pm 9.5 -1.9 7.6 88 0.9 W 57 67 31 36 995.7 - 0.0
23/07:16pm 9.9 -1.8 8.0 88 0.9 W 59 80 32 43 995.4 - 0.0
23/07:00pm 10.0 -6.4 7.3 83 1.3 WNW 83 106 45 57 994.7 - 0.0
23/06:30pm 12.5 -4.6 5.9 64 3.1 WNW 85 109 46 59 992.9 - 0.0
23/06:27pm 13.1 -3.7 5.3 59 3.7 WNW 83 102 45 55 993.1 - 0.0
23/06:20pm 13.2 -4.0 5.4 59 3.7 WNW 85 91 46 49 993.3 - 0.0
23/06:00pm 13.6 0.8 4.7 55 4.2 NW 61 83 33 45 993.3 993.3 0.0
23/05:30pm 13.7 2.7 5.1 56 4.0 NNW 52 70 28 38 993.5 - 0.0
23/05:00pm 13.7 2.2 4.3 53 4.3 NNW 54 76 29 41 993.4 - 0.0
23/04:30pm 13.6 4.3 5.7 59 3.7 NNW 44 70 24 38 993.9 - 0.0
23/04:07pm 13.8 4.4 5.4 57 4.0 NNW 44 63 24 34 994.2 - 0.0
23/04:00pm 13.8 3.3 5.4 57 4.0 NNW 50 67 27 36 994.2 - 0.0
23/03:30pm 14.0 3.2 5.9 58 3.9 NNW 52 72 28 39 994.5 - 0.0
23/03:00pm 14.1 2.5 6.5 60 3.7 NNW 57 78 31 42 994.8 994.8 0.0
23/02:59pm 14.1 2.0 6.2 59 3.8 NNW 59 78 32 42 994.8 - 0.0
23/02:53pm 14.2 0.8 5.3 55 4.2 NW 65 78 35 42 994.6 - 0.0
23/02:37pm 14.3 4.7 6.4 59 3.8 NNW 46 67 25 36 994.9 - 0.0
23/02:30pm 14.3 4.8 6.6 60 3.7 NNW 46 57 25 31 995.2 - 0.0
23/02:00pm 13.8 2.9 7.3 65 3.2 NW 54 69 29 37 995.4 - 0.0
23/01:30pm 14.1 2.5 6.7 61 3.6 NW 57 72 31 39 995.5 - 0.0
23/01:24pm 14.2 2.2 6.6 60 3.7 NW 59 78 32 42 995.7 - 0.0
23/01:00pm 14.2 2.2 6.6 60 3.7 NW 59 72 32 39 996.0 - 0.0
23/12:33pm 13.7 2.0 6.3 61 3.6 NW 57 76 31 41 996.5 - 0.0
23/12:30pm 13.8 2.1 6.4 61 3.6 NW 57 74 31 40 996.6 - 0.0
23/12:26pm 13.7 2.6 6.3 61 3.6 NNW 54 72 29 39 996.7 - 0.0
23/12:00pm 14.0 1.6 6.6 61 3.6 NW 61 72 33 39 997.3 997.4 0.0
23/11:34am 14.1 0.5 6.2 59 3.8 NW 67 85 36 46 997.5 - 0.0
23/11:30am 13.9 0.3 6.3 60 3.7 NW 67 83 36 45 997.7 - 0.0
23/11:08am 13.8 1.4 6.4 61 3.6 NW 61 80 33 43 998.1 - 0.0
23/11:00am 13.6 1.1 6.2 61 3.5 NW 61 74 33 40 998.6 - 0.0
23/10:30am 13.7 1.7 6.6 62 3.4 NW 59 83 32 45 999.0 - 0.0
23/10:23am 13.8 1.4 6.4 61 3.6 NW 61 83 33 45 998.9 - 0.0
23/10:00am 13.5 -1.0 6.4 62 3.4 NW 72 83 39 45 999.0 - 0.0
23/09:30am 13.0 -0.5 6.8 66 3.0 NW 67 89 36 48 999.2 - 0.0
23/09:00am 12.7 -1.4 6.3 65 3.1 NW 70 95 38 51 999.0 999.1 11.2
23/08:30am 12.5 -2.5 5.7 63 3.2 NW 74 100 40 54 999.1 - 11.2
23/08:01am 12.5 -2.8 6.3 66 3.0 NW 76 95 41 51 999.3 - 11.2
23/08:00am 12.4 -3.4 5.8 64 3.1 NW 78 95 42 51 999.1 - 11.2
23/07:30am 12.4 -2.1 6.5 67 2.8 NW 72 95 39 51 999.3 - 11.2
23/07:00am 12.3 -0.4 7.0 70 2.6 NW 63 87 34 47 999.5 - 11.2
23/06:30am 12.2 -1.2 7.3 72 2.4 NW 67 96 36 52 999.2 - 11.2
23/06:00am 12.3 -1.0 7.6 73 2.3 WNW 67 85 36 46 999.4 999.5 11.2
23/05:30am 12.1 -1.9 7.0 71 2.5 NW 70 89 38 48 999.3 - 11.2
23/05:00am 11.9 -2.5 6.8 71 2.4 NW 72 96 39 52 999.5 - 11.2
23/04:37am 11.9 -1.9 7.2 73 2.3 WNW 69 89 37 48 999.9 - 11.2
23/04:30am 12.0 -1.9 7.3 73 2.3 WNW 70 85 38 46 999.9 - 11.2
23/04:08am 12.1 -1.6 7.6 74 2.2 WNW 69 87 37 47 1000.2 - 11.2
23/04:00am 12.2 -1.6 7.9 75 2.1 WNW 70 83 38 45 1000.2 - 11.2
23/03:37am 12.1 -1.7 8.0 76 2.0 WNW 70 89 38 48 1000.1 - 11.2
23/03:30am 12.1 -1.5 8.0 76 2.0 WNW 69 83 37 45 1000.4 - 11.2
23/03:19am 12.0 -2.1 8.1 77 1.9 WNW 72 91 39 49 1000.5 - 11.2
23/03:00am 12.0 -2.9 8.1 77 1.9 WNW 76 89 41 48 1000.5 1000.6 11.2
23/02:30am 12.0 -2.8 8.3 78 1.8 WNW 76 89 41 48 1000.8 - 11.2
23/02:00am 12.0 -3.6 8.3 78 1.8 WNW 80 91 43 49 1001.2 - 11.2
23/01:30am 11.9 -2.1 8.4 79 1.7 WNW 72 80 39 43 1001.7 - 11.2
23/01:00am 11.9 -0.4 8.6 80 1.6 WNW 63 74 34 40 1002.5 - 11.2
23/12:30am 11.8 -0.5 8.5 80 1.6 WNW 63 76 34 41 1002.7 - 11.2
23/12:00am 11.6 -1.5 8.5 81 1.5 WNW 67 80 36 43 1002.6 1002.6 11.2
 
Date/Time
EST
Temp
°C
App
Temp
°C
Dew
Point
°C
Rel
Hum
%
Delta-T
°C
Wind Press
QNH
hPa
Press
MSL
hPa
Rain since
9am
mm
Dir  Spd
km/h
Gust
km/h
Spd
kts
Gust
kts
22/11:30pm 11.5 -0.7 9.1 85 1.2 WNW 63 76 34 41 1002.8 - 11.2
22/11:00pm 11.3 -0.4 9.2 87 1.1 WNW 61 74 33 40 1002.8 - 11.2
22/10:30pm 11.3 -2.9 9.4 88 1.0 WNW 74 89 40 48 1002.5 - 11.2
22/10:00pm 11.0 -2.2 9.6 91 0.7 WNW 69 83 37 45 1002.7 - 11.0
22/09:30pm 10.6 -0.7 9.5 93 0.6 WNW 59 70 32 38 1003.4 - 11.0
22/09:00pm 10.3 1.5 9.4 94 0.5 WNW 46 59 25 32 1003.6 1003.7 10.8
22/08:54pm 9.2 1.4 8.3 94 0.4 W 39 54 21 29 1003.9 - 10.6
22/08:33pm 7.5 -5.1 5.5 87 0.9 WNW 61 95 33 51 1003.5 - 6.6
22/08:30pm 10.3 -0.8 8.2 87 1.0 WNW 56 67 30 36 1003.5 - 5.4
22/08:00pm 11.6 0.6 8.6 82 1.5 W 56 69 30 37 1002.9 - 4.2
22/07:37pm 10.9 -1.0 7.0 77 1.9 WNW 59 78 32 42 1002.9 - 4.2
22/07:30pm 11.9 -0.7 7.2 73 2.3 W 63 78 34 42 1002.6 - 4.2
22/07:00pm 12.2 -1.7 6.5 68 2.7 W 69 83 37 45 1002.1 - 4.2
22/06:30pm 12.1 -2.4 6.4 68 2.7 W 72 85 39 46 1001.3 - 4.2
22/06:00pm 12.1 -1.4 6.6 69 2.6 W 67 82 36 44 1001.2 1001.3 4.2
22/05:30pm 12.1 -2.3 7.0 71 2.5 W 72 83 39 45 1000.6 - 4.2
22/05:00pm 12.0 -5.0 6.5 69 2.6 W 85 98 46 53 999.5 - 4.2
22/04:32pm 12.1 -3.1 8.4 78 1.8 W 78 96 42 52 999.3 - 4.2
22/04:00pm 12.4 -2.6 9.2 81 1.6 W 78 91 42 49 999.1 - 4.2
22/03:31pm 12.1 -3.8 9.3 83 1.4 WNW 83 102 45 55 998.5 - 4.2
22/03:30pm 12.1 -4.1 9.5 84 1.3 WNW 85 102 46 55 998.5 - 4.2
22/03:02pm 11.4 -4.9 9.3 87 1.1 W 85 104 46 56 998.1 - 4.2
22/03:00pm 11.3 -5.4 9.2 87 1.1 W 87 104 47 56 998.0 998.1 4.2
22/02:33pm 11.1 -7.2 8.8 86 1.1 WNW 95 113 51 61 997.4 - 4.2
22/02:30pm 11.3 -7.2 9.0 86 1.2 WNW 96 113 52 61 997.1 - 4.2
22/02:19pm 11.6 -6.1 9.7 88 1.0 WNW 93 126 50 68 996.7 - 4.2
22/02:04pm 11.0 -4.6 9.6 91 0.7 WNW 82 100 44 54 997.0 - 4.0
22/02:00pm 10.9 -4.9 9.7 92 0.6 WNW 83 100 45 54 997.1 - 4.0
22/01:30pm 9.1 -4.8 7.5 90 0.8 W 70 89 38 48 997.9 - 1.8
22/01:01pm 10.3 -4.6 8.2 87 1.0 WNW 76 96 41 52 997.3 - 0.4
22/01:00pm 10.8 -3.9 8.7 87 1.0 WNW 76 93 41 50 997.3 - 0.4
22/12:39pm 11.7 -2.3 8.6 81 1.5 WNW 72 91 39 49 997.0 - 0.2
22/12:30pm 11.9 -2.5 8.6 80 1.6 WNW 74 89 40 48 997.4 - 0.2
22/12:17pm 11.3 -3.5 8.3 82 1.5 WNW 76 98 41 53 997.3 - 0.2
22/12:09pm 11.4 -7.3 8.1 80 1.6 WNW 96 117 52 63 997.1 - 0.2
22/12:03pm 11.4 -9.4 7.3 76 2.0 W 106 117 57 63 996.1 - 0.2
22/12:02pm 12.0 -3.6 8.1 77 1.9 W 80 117 43 63 996.3 - 0.2
22/12:00pm 13.0 -1.5 9.4 79 1.9 W 76 95 41 51 997.3 997.4 0.2
22/11:34am 11.8 -1.8 8.8 82 1.5 W 70 93 38 50 997.3 - 0.2
22/11:30am 11.8 -0.8 8.8 82 1.5 W 65 85 35 46 997.7 - 0.2
22/11:28am 11.9 -0.4 8.7 81 1.6 W 63 87 34 47 997.8 - 0.2
22/11:02am 11.0 -5.6 8.2 83 1.4 W 85 104 46 56 997.1 - 0.2
22/11:00am 10.7 -6.3 7.9 83 1.4 W 87 104 47 56 997.2 - 0.2
22/10:46am 12.1 -2.8 8.2 77 1.9 W 76 98 41 53 997.0 - 0.0
22/10:30am 12.0 -3.4 7.7 75 2.1 W 78 91 42 49 997.2 - 0.0
22/10:01am 11.4 -5.1 6.9 74 2.2 W 83 102 45 55 996.7 - 0.0
22/10:00am 11.4 -5.5 6.9 74 2.2 W 85 102 46 55 996.6 - 0.0
22/09:49am 12.5 -3.3 7.6 72 2.4 W 80 98 43 53 996.5 - 0.0
22/09:30am 11.9 -3.9 7.2 73 2.3 W 80 95 43 51 996.1 - 0.0
22/09:02am 12.1 -5.2 6.8 70 2.5 W 87 106 47 57 995.6 - 0.0
22/09:00am 12.0 -5.7 6.7 70 2.6 W 89 106 48 57 995.4 995.4 2.6
22/08:34am 11.4 -4.5 8.6 83 1.4 W 82 100 44 54 995.5 - 2.4
22/08:30am 11.2 -5.3 8.6 84 1.3 W 85 100 46 54 995.3 - 2.4
22/08:00am 11.6 -4.5 8.6 82 1.5 W 83 102 45 55 994.3 - 2.4
22/07:40am 11.4 -6.1 9.0 85 1.2 W 91 111 49 60 993.5 - 2.2
22/07:30am 10.8 -6.0 8.9 88 0.9 W 87 104 47 56 993.6 - 2.2
22/07:00am 9.7 -7.8 7.6 87 1.0 W 89 117 48 63 992.5 - 1.8
22/06:30am 11.5 -5.2 9.1 85 1.2 W 87 109 47 59 992.8 - 1.6
22/06:21am 11.3 -5.8 9.0 86 1.2 W 89 107 48 58 992.4 - 1.6

Other Formats:

Comma delimited format used in spreadsheet applications
http://www.bom.gov.au/fwo/IDV60801/IDV60801.94949.axf

JavaScript Object Notation format (JSON) in row-major order
http://www.bom.gov.au/fwo/IDV60801/IDV60801.94949.json